Time;durP1;ratioP1;P1;durP2;ratioP2;P2;SDS_P1;SDS_P2;PMS_P1;PMS_P2;Temp;Humidity;BMP_temperature;BMP_pressure;BME280_temperature;BME280_humidity;BME280_pressure;Samples;Min_cycle;Max_cycle;Signal;HPM_P1;HPM_P2
2021/11/30 00:01:05;;;;;;;16.13;11.97;;;;;;;-0.15;100.00;97643.81;4955401;28;20596;-78
2021/11/30 00:03:33;;;;;;;14.80;12.23;;;;;;;-0.11;100.00;97640.06;4996180;28;20633;-75
2021/11/30 00:06:01;;;;;;;21.80;16.27;;;;;;;-0.12;100.00;97646.19;4971271;28;20213;-78
2021/11/30 00:08:31;;;;;;;13.80;12.40;;;;;;;-0.10;100.00;97651.28;4994287;28;20747;-76
2021/11/30 00:11:00;;;;;;;14.80;13.17;;;;;;;-0.10;100.00;97651.28;4982262;28;21417;-78
2021/11/30 00:13:30;;;;;;;12.70;10.47;;;;;;;-0.13;100.00;97656.72;4994851;28;20201;-78
2021/11/30 00:15:58;;;;;;;12.17;10.97;;;;;;;-0.15;100.00;97659.44;4969670;28;20491;-77
2021/11/30 00:18:32;;;;;;;12.23;10.93;;;;;;;-0.18;100.00;97665.69;4984066;28;20854;-77
2021/11/30 00:21:01;;;;;;;15.03;10.80;;;;;;;-0.22;100.00;97659.00;4996658;28;20206;-78
2021/11/30 00:23:29;;;;;;;14.30;12.57;;;;;;;-0.27;100.00;97655.88;4973688;28;20228;-76
2021/11/30 00:25:58;;;;;;;12.70;11.50;;;;;;;-0.28;100.00;97656.84;4992491;28;20510;-78
2021/11/30 00:28:26;;;;;;;11.33;9.87;;;;;;;-0.30;100.00;97659.53;4999619;28;20224;-78
2021/11/30 00:30:54;;;;;;;13.23;11.93;;;;;;;-0.30;100.00;97653.50;4977253;28;21063;-78
2021/11/30 00:33:22;;;;;;;11.67;10.47;;;;;;;-0.26;100.00;97651.50;4965034;28;20641;-76
2021/11/30 00:35:52;;;;;;;16.60;13.10;;;;;;;-0.27;100.00;97645.47;4977868;28;20467;-78
2021/11/30 00:38:20;;;;;;;14.37;11.97;;;;;;;-0.17;100.00;97645.69;4986256;28;20229;-75
2021/11/30 00:40:48;;;;;;;12.67;11.40;;;;;;;-0.20;100.00;97658.88;4977419;28;20639;-75
2021/11/30 00:43:19;;;;;;;14.83;11.53;;;;;;;-0.22;100.00;97661.63;4999511;28;20228;-77
2021/11/30 00:45:53;;;;;;;11.93;10.73;;;;;;;-0.23;100.00;97659.09;4994744;28;20209;-75
2021/11/30 00:48:23;;;;;;;11.80;10.70;;;;;;;-0.15;100.00;97659.44;4963576;28;20483;-77
2021/11/30 00:50:53;;;;;;;11.63;10.40;;;;;;;-0.22;100.00;97671.19;4993938;28;20223;-78
2021/11/30 00:53:21;;;;;;;12.07;10.93;;;;;;;-0.26;100.00;97669.72;4987951;28;20209;-77
2021/11/30 00:55:49;;;;;;;12.77;11.40;;;;;;;-0.20;100.00;97669.31;4993879;28;20870;-77
2021/11/30 00:58:17;;;;;;;11.37;10.10;;;;;;;-0.15;100.00;97667.25;5002137;28;20471;-78
2021/11/30 01:00:46;;;;;;;11.87;10.67;;;;;;;-0.26;100.00;97672.34;4981406;28;20263;-74
2021/11/30 01:03:14;;;;;;;12.47;11.23;;;;;;;-0.28;100.00;97669.00;4970365;28;20716;-77
2021/11/30 01:05:42;;;;;;;11.57;10.20;;;;;;;-0.24;100.00;97662.66;4974667;28;20208;-75
2021/11/30 01:08:12;;;;;;;11.53;10.33;;;;;;;-0.31;100.00;97659.66;4983883;28;20248;-76
2021/11/30 01:10:40;;;;;;;10.20;9.30;;;;;;;-0.34;100.00;97665.88;4985837;28;20212;-75
2021/11/30 01:13:08;;;;;;;13.20;10.73;;;;;;;-0.24;100.00;97663.50;4997388;28;20225;-75
2021/11/30 01:15:37;;;;;;;12.00;10.60;;;;;;;-0.31;100.00;97668.28;5001069;28;20614;-78
2021/11/30 01:18:06;;;;;;;12.37;11.07;;;;;;;-0.30;100.00;97669.94;4991292;28;21106;-75
2021/11/30 01:20:35;;;;;;;12.70;11.40;;;;;;;-0.21;100.00;97667.66;4980021;28;20691;-77
2021/11/30 01:23:04;;;;;;;13.57;10.27;;;;;;;-0.19;100.00;97670.97;5001583;28;20224;-77
2021/11/30 01:25:34;;;;;;;11.37;10.27;;;;;;;-0.16;100.00;97670.78;4986923;28;20217;-77
2021/11/30 01:28:02;;;;;;;12.23;10.97;;;;;;;-0.19;100.00;97673.56;4999745;28;20708;-78
2021/11/30 01:30:31;;;;;;;12.23;11.03;;;;;;;-0.17;100.00;97676.94;4996525;28;20456;-78
2021/11/30 01:32:59;;;;;;;12.43;10.87;;;;;;;-0.11;100.00;97675.66;4999352;28;20639;-77
2021/11/30 01:35:28;;;;;;;10.97;9.77;;;;;;;-0.09;100.00;97673.78;4954375;28;20244;-77
2021/11/30 01:37:56;;;;;;;10.90;9.37;;;;;;;-0.10;100.00;97680.78;4998774;28;20607;-77
2021/11/30 01:40:25;;;;;;;10.93;9.83;;;;;;;-0.04;100.00;97676.91;4971677;28;20448;-75
2021/11/30 01:42:58;;;;;;;11.40;10.20;;;;;;;0.01;100.00;97679.22;5000364;28;20223;-77
2021/11/30 01:45:32;;;;;;;11.83;9.90;;;;;;;0.05;100.00;97678.06;4982959;28;20212;-75
2021/11/30 01:50:54;;;;;;;11.17;9.97;;;;;;;0.03;100.00;97678.19;4968393;28;20221;-78
2021/11/30 01:53:22;;;;;;;13.07;10.17;;;;;;;0.11;100.00;97680.25;4972927;28;20205;-75
2021/11/30 01:55:51;;;;;;;10.80;9.70;;;;;;;0.03;100.00;97669.53;5002097;28;20958;-78
2021/11/30 01:58:21;;;;;;;10.03;9.10;;;;;;;0.07;100.00;97665.75;4984771;28;20237;-75
2021/11/30 02:00:50;;;;;;;10.67;9.53;;;;;;;0.04;100.00;97663.38;4995608;28;20471;-77
2021/11/30 02:03:18;;;;;;;10.70;9.33;;;;;;;0.03;100.00;97648.69;4986529;28;20286;-75
2021/11/30 02:05:47;;;;;;;10.27;9.23;;;;;;;-0.04;100.00;97646.50;4999566;28;20459;-76
2021/11/30 02:08:15;;;;;;;11.37;9.83;;;;;;;-0.10;100.00;97652.13;4963575;28;20712;-75
2021/11/30 02:10:43;;;;;;;11.13;9.87;;;;;;;-0.05;100.00;97647.44;4986160;28;20439;-76
2021/11/30 02:13:11;;;;;;;10.67;9.20;;;;;;;-0.02;100.00;97659.41;5001405;28;20208;-75
2021/11/30 02:15:44;;;;;;;10.17;9.17;;;;;;;-0.07;100.00;97651.94;4984418;28;21372;-77
2021/11/30 02:18:20;;;;;;;10.10;9.10;;;;;;;-0.03;100.00;97652.53;5000311;28;20216;-75
2021/11/30 02:20:50;;;;;;;10.77;9.03;;;;;;;-0.01;100.00;97641.06;5001555;28;20208;-78
2021/11/30 02:23:30;;;;;;;10.23;9.23;;;;;;;0.02;100.00;97642.66;4951137;28;20229;-75
2021/11/30 02:25:59;;;;;;;10.57;8.80;;;;;;;-0.03;100.00;97640.34;4990112;28;20471;-77
2021/11/30 02:28:27;;;;;;;9.93;8.93;;;;;;;0.01;100.00;97640.13;4984526;28;20240;-77
2021/11/30 02:30:55;;;;;;;8.77;8.03;;;;;;;0.04;100.00;97647.75;5002559;28;20208;-77
2021/11/30 02:33:23;;;;;;;9.97;8.97;;;;;;;0.07;100.00;97634.50;4984352;28;20330;-75
2021/11/30 02:35:53;;;;;;;9.43;8.27;;;;;;;0.13;100.00;97637.50;5002369;28;20453;-76
2021/11/30 02:38:21;;;;;;;9.87;8.77;;;;;;;0.13;100.00;97639.28;4970145;28;20252;-75
2021/11/30 02:40:49;;;;;;;9.73;8.83;;;;;;;0.18;100.00;97631.97;5004183;28;20216;-76
2021/11/30 02:43:18;;;;;;;9.83;8.83;;;;;;;0.25;100.00;97632.38;4988577;28;20513;-75
2021/11/30 02:45:46;;;;;;;8.77;8.07;;;;;;;0.22;100.00;97636.03;5003777;28;20874;-77
2021/11/30 02:48:14;;;;;;;8.87;8.10;;;;;;;0.26;100.00;97637.50;4993319;28;20463;-75
2021/11/30 02:50:43;;;;;;;8.67;7.97;;;;;;;0.24;100.00;97631.56;4994426;28;20879;-77
2021/11/30 02:53:16;;;;;;;8.70;7.90;;;;;;;0.20;100.00;97637.94;4993325;28;20481;-75
2021/11/30 02:55:46;;;;;;;9.87;8.73;;;;;;;0.21;100.00;97637.00;4994242;28;20207;-75
2021/11/30 02:58:15;;;;;;;7.87;7.17;;;;;;;0.35;100.00;97617.75;4989477;28;20624;-78
2021/11/30 03:00:43;;;;;;;8.40;7.70;;;;;;;0.36;100.00;97618.59;5004766;28;20477;-76
2021/11/30 03:03:11;;;;;;;9.40;8.50;;;;;;;0.36;100.00;97626.41;4998537;28;20675;-78
2021/11/30 03:05:39;;;;;;;7.77;6.93;;;;;;;0.31;100.00;97623.31;4983902;28;20730;-76
2021/11/30 03:08:07;;;;;;;8.87;7.37;;;;;;;0.26;100.00;97624.47;5001620;28;20235;-75
2021/11/30 03:10:37;;;;;;;8.13;7.40;;;;;;;0.26;100.00;97614.03;4963335;28;20220;-75
2021/11/30 03:13:05;;;;;;;7.73;7.10;;;;;;;0.20;100.00;97624.06;4989074;28;20464;-76
2021/11/30 03:15:33;;;;;;;6.83;6.20;;;;;;;0.17;100.00;97622.47;5000670;28;20461;-75
2021/11/30 03:18:01;;;;;;;7.07;6.47;;;;;;;0.10;100.00;97621.25;5003201;28;20224;-78
2021/11/30 03:20:29;;;;;;;6.93;6.30;;;;;;;0.01;100.00;97620.13;5001404;28;21006;-75
2021/11/30 03:22:57;;;;;;;9.03;6.70;;;;;;;0.00;100.00;97623.69;5002747;28;20456;-77
2021/11/30 03:25:25;;;;;;;6.40;5.90;;;;;;;-0.01;100.00;97622.84;4968846;28;20492;-76
2021/11/30 03:27:54;;;;;;;7.53;6.83;;;;;;;-0.10;100.00;97615.66;4994416;28;20493;-77
2021/11/30 03:30:23;;;;;;;7.00;6.40;;;;;;;-0.12;100.00;97612.34;4992281;28;20461;-75
2021/11/30 03:35:37;;;;;;;6.10;5.70;;;;;;;-0.17;100.00;97617.03;4997517;28;20827;-75
2021/11/30 03:38:05;;;;;;;6.40;5.80;;;;;;;-0.18;100.00;97613.59;4995255;28;20340;-77
2021/11/30 03:40:34;;;;;;;6.53;5.93;;;;;;;0.03;100.00;97615.66;4967431;28;20460;-71
2021/11/30 03:43:03;;;;;;;5.57;5.20;;;;;;;0.20;100.00;97621.44;4985693;28;20879;-73
2021/11/30 03:45:32;;;;;;;5.60;5.20;;;;;;;0.12;100.00;97625.44;4988633;28;20232;-74
2021/11/30 03:48:00;;;;;;;5.50;5.10;;;;;;;0.12;100.00;97619.38;5000540;28;20478;-75
2021/11/30 03:50:28;;;;;;;5.80;5.30;;;;;;;0.12;100.00;97624.59;4999551;28;20444;-74
2021/11/30 03:52:56;;;;;;;6.10;5.60;;;;;;;0.11;100.00;97620.31;5001320;28;20208;-74
2021/11/30 03:55:24;;;;;;;5.60;5.20;;;;;;;0.07;100.00;97614.50;4976326;28;20569;-74
2021/11/30 03:58:00;;;;;;;5.53;5.13;;;;;;;0.05;100.00;97602.50;4982826;28;20803;-75
2021/11/30 04:00:29;;;;;;;6.50;6.00;;;;;;;-0.03;100.00;97601.28;4983197;28;20517;-76
2021/11/30 04:02:58;;;;;;;5.57;5.07;;;;;;;-0.08;100.00;97616.41;4992305;28;20466;-75
2021/11/30 04:05:26;;;;;;;5.93;5.43;;;;;;;-0.12;100.00;97608.88;4999721;28;20574;-77
2021/11/30 04:07:54;;;;;;;6.50;6.00;;;;;;;-0.11;100.00;97611.41;5004600;28;20467;-77
2021/11/30 04:10:22;;;;;;;5.97;5.50;;;;;;;-0.05;100.00;97625.75;4985994;28;20586;-76
2021/11/30 04:12:52;;;;;;;6.37;5.77;;;;;;;-0.11;100.00;97631.38;4977589;28;20224;-76
2021/11/30 04:15:20;;;;;;;6.50;5.90;;;;;;;-0.08;100.00;97620.75;4982543;28;20455;-75
2021/11/30 04:17:49;;;;;;;7.17;6.47;;;;;;;-0.11;100.00;97618.38;5004003;28;20221;-77
2021/11/30 04:20:17;;;;;;;5.93;5.47;;;;;;;-0.09;100.00;97606.91;4985853;28;20448;-75
2021/11/30 04:22:45;;;;;;;7.10;6.60;;;;;;;-0.07;100.00;97610.25;5004881;28;20208;-77
2021/11/30 04:25:14;;;;;;;6.87;6.17;;;;;;;-0.02;100.00;97602.94;5002962;28;20707;-75
2021/11/30 04:27:42;;;;;;;6.77;6.20;;;;;;;-0.01;100.00;97604.59;4962059;28;20484;-76
2021/11/30 04:30:11;;;;;;;6.23;5.63;;;;;;;-0.04;100.00;97612.63;5000126;28;20215;-75
2021/11/30 04:32:39;;;;;;;6.40;5.90;;;;;;;0.01;100.00;97611.47;4989631;28;20232;-76
2021/11/30 04:35:10;;;;;;;6.40;5.60;;;;;;;0.08;100.00;97607.50;5003460;28;20212;-75
2021/11/30 04:37:38;;;;;;;5.77;5.27;;;;;;;0.06;100.00;97602.41;5000402;28;20477;-76
2021/11/30 04:40:08;;;;;;;5.90;5.40;;;;;;;0.06;100.00;97596.34;4988664;28;20524;-75
2021/11/30 04:42:39;;;;;;;6.30;5.87;;;;;;;0.11;100.00;97604.69;4974938;28;21136;-77
2021/11/30 04:45:10;;;;;;;7.57;6.97;;;;;;;0.11;100.00;97605.53;4989588;28;20255;-75
2021/11/30 04:47:41;;;;;;;6.37;5.87;;;;;;;0.11;100.00;97600.31;5006059;28;20228;-75
2021/11/30 04:50:16;;;;;;;6.50;5.90;;;;;;;0.15;100.00;97593.09;4993428;28;21154;-77
2021/11/30 04:52:46;;;;;;;5.97;5.50;;;;;;;0.15;100.00;97598.31;4994533;28;20216;-74
2021/11/30 04:55:21;;;;;;;9.03;5.90;;;;;;;0.18;100.00;97590.25;5001832;28;20700;-76
2021/11/30 04:57:50;;;;;;;6.20;5.70;;;;;;;0.16;100.00;97593.94;4983368;28;21010;-77
2021/11/30 05:00:19;;;;;;;6.10;5.50;;;;;;;0.18;100.00;97592.88;4991386;28;20213;-76
2021/11/30 05:02:47;;;;;;;5.13;4.73;;;;;;;0.21;100.00;97584.88;5001521;28;20212;-75
2021/11/30 05:05:16;;;;;;;4.90;4.37;;;;;;;0.25;100.00;97572.44;5003539;28;20311;-77
2021/11/30 05:07:45;;;;;;;6.60;5.37;;;;;;;0.24;100.00;97584.66;4983034;28;20498;-76
2021/11/30 05:10:14;;;;;;;5.77;4.80;;;;;;;0.23;100.00;97593.41;5001599;28;20200;-77
2021/11/30 05:12:42;;;;;;;5.03;4.73;;;;;;;0.28;100.00;97614.75;4988937;28;20236;-70
2021/11/30 05:15:11;;;;;;;5.63;4.60;;;;;;;0.31;100.00;97589.41;4958770;28;20360;-71
2021/11/30 05:17:39;;;;;;;4.33;4.03;;;;;;;0.31;100.00;97576.38;4998276;28;20232;-75
2021/11/30 05:20:08;;;;;;;7.07;4.30;;;;;;;0.25;100.00;97581.09;4981876;28;20338;-75
2021/11/30 05:22:38;;;;;;;4.83;4.30;;;;;;;0.34;100.00;97569.16;4999702;28;20209;-75
2021/11/30 05:25:21;;;;;;;4.70;4.30;;;;;;;0.27;100.00;97560.13;4984412;28;20225;-76
2021/11/30 05:27:49;;;;;;;4.47;4.10;;;;;;;0.34;100.00;97569.16;4997110;28;20235;-77
2021/11/30 05:30:20;;;;;;;4.53;4.07;;;;;;;0.27;100.00;97560.97;4970829;28;20274;-77
2021/11/30 05:32:49;;;;;;;6.17;4.87;;;;;;;0.28;100.00;97567.00;4982725;28;20236;-77
2021/11/30 05:35:18;;;;;;;5.00;3.70;;;;;;;0.29;100.00;97571.25;5001789;28;20596;-78
2021/11/30 05:37:47;;;;;;;4.53;4.13;;;;;;;0.32;100.00;97557.19;4978781;28;20251;-77
2021/11/30 05:40:16;;;;;;;4.50;4.10;;;;;;;0.36;100.00;97556.03;4985344;28;20283;-77
2021/11/30 05:42:44;;;;;;;4.47;4.10;;;;;;;0.34;100.00;97563.13;4995199;28;20205;-75
2021/11/30 05:45:12;;;;;;;4.10;3.70;;;;;;;0.30;100.00;97556.47;4971042;28;20484;-77
2021/11/30 05:47:41;;;;;;;4.57;4.17;;;;;;;0.32;100.00;97571.03;4987107;28;21193;-77
2021/11/30 05:50:10;;;;;;;4.10;3.90;;;;;;;0.29;100.00;97563.44;5002022;28;20447;-76
2021/11/30 05:52:38;;;;;;;5.13;3.80;;;;;;;0.25;100.00;97559.41;4998761;28;20573;-77
2021/11/30 05:55:09;;;;;;;4.30;3.83;;;;;;;0.18;100.00;97551.19;4996995;28;20201;-77
2021/11/30 05:57:37;;;;;;;7.00;4.13;;;;;;;0.04;100.00;97544.38;5000415;28;21352;-75
2021/11/30 06:00:07;;;;;;;4.33;4.03;;;;;;;-0.01;100.00;97544.69;4985110;28;20247;-77
2021/11/30 06:02:51;;;;;;;4.53;4.23;;;;;;;-0.06;100.00;97535.50;4976585;28;20815;-77
2021/11/30 06:05:20;;;;;;;5.00;4.03;;;;;;;-0.08;100.00;97550.41;4987887;28;20252;-77
2021/11/30 06:07:48;;;;;;;5.60;4.27;;;;;;;-0.07;100.00;97529.50;5002992;28;20487;-77
2021/11/30 06:10:18;;;;;;;5.07;4.57;;;;;;;-0.07;100.00;97534.69;5002096;28;20608;-77
2021/11/30 06:12:46;;;;;;;4.73;3.93;;;;;;;-0.03;100.00;97535.28;4990770;28;20219;-77
2021/11/30 06:15:15;;;;;;;4.37;4.07;;;;;;;-0.10;100.00;97534.06;4979308;28;20446;-77
2021/11/30 06:17:44;;;;;;;5.10;4.17;;;;;;;-0.10;100.00;97518.44;5024059;28;20223;-77
2021/11/30 06:20:13;;;;;;;5.47;3.80;;;;;;;-0.09;100.00;97523.56;5044967;28;20523;-77
2021/11/30 06:22:41;;;;;;;3.93;3.37;;;;;;;-0.26;100.00;97532.56;5045128;28;20210;-77
2021/11/30 06:25:10;;;;;;;6.13;3.70;;;;;;;-0.27;100.00;97524.84;5027489;28;20230;-77
2021/11/30 06:27:41;;;;;;;5.63;4.13;;;;;;;-0.33;100.00;97519.13;5045059;28;20426;-77
2021/11/30 06:30:10;;;;;;;4.23;3.90;;;;;;;-0.31;100.00;97517.22;5015425;28;20203;-77
2021/11/30 06:32:39;;;;;;;6.47;5.33;;;;;;;-0.43;100.00;97520.69;5018947;28;20222;-77
2021/11/30 06:35:08;;;;;;;4.60;4.30;;;;;;;-0.49;100.00;97514.13;5034407;28;20872;-77
2021/11/30 06:37:37;;;;;;;4.00;3.70;;;;;;;-0.49;100.00;97511.53;5031683;28;20250;-76
2021/11/30 06:40:06;;;;;;;4.80;4.40;;;;;;;-0.53;100.00;97511.88;5028980;28;20214;-77
2021/11/30 06:42:34;;;;;;;4.20;3.90;;;;;;;-0.60;100.00;97503.66;5023955;28;20611;-78
2021/11/30 06:45:04;;;;;;;4.80;3.80;;;;;;;-0.65;100.00;97498.75;5045613;28;20284;-78
2021/11/30 06:47:32;;;;;;;4.30;4.00;;;;;;;-0.69;100.00;97494.69;5001911;28;21098;-78
2021/11/30 06:50:00;;;;;;;11.90;9.67;;;;;;;-0.67;100.00;97497.22;5046199;28;20200;-78
2021/11/30 06:52:28;;;;;;;22.87;14.17;;;;;;;-0.73;100.00;97494.09;5045233;28;20207;-78
2021/11/30 06:54:56;;;;;;;4.43;4.03;;;;;;;-0.76;100.00;97501.25;5017271;28;20207;-78
2021/11/30 06:57:24;;;;;;;5.63;3.70;;;;;;;-0.76;100.00;97501.25;5042514;28;20441;-78
2021/11/30 06:59:52;;;;;;;3.87;3.57;;;;;;;-0.76;100.00;97498.66;5043553;28;20214;-77
2021/11/30 07:02:23;;;;;;;3.73;3.53;;;;;;;-0.82;100.00;97492.09;5010454;28;20218;-79
2021/11/30 07:04:53;;;;;;;3.33;3.13;;;;;;;-0.83;100.00;97487.00;5034314;28;20904;-78
2021/11/30 07:07:29;;;;;;;4.63;3.50;;;;;;;-0.86;100.00;97487.22;5043402;28;20239;-78
2021/11/30 07:10:22;;;;;;;4.07;3.70;;;;;;;-0.90;100.00;97486.59;5029193;28;20225;-77
2021/11/30 07:13:04;;;;;;;4.13;3.83;;;;;;;-0.81;100.00;97470.34;5044626;28;20298;-79
2021/11/30 07:15:32;;;;;;;3.93;3.57;;;;;;;-0.88;100.00;97475.16;5043241;28;20226;-79
2021/11/30 07:18:02;;;;;;;4.13;3.83;;;;;;;-0.85;100.00;97476.69;5019842;28;20228;-78
2021/11/30 07:20:31;;;;;;;3.60;3.37;;;;;;;-0.89;100.00;97470.88;5030608;28;20829;-79
2021/11/30 07:22:59;;;;;;;3.80;3.50;;;;;;;-0.91;100.00;97464.97;5046398;28;20222;-79
2021/11/30 07:25:27;;;;;;;5.77;3.90;;;;;;;-0.89;100.00;97457.88;5028981;28;20342;-78
2021/11/30 07:27:55;;;;;;;3.30;3.10;;;;;;;-0.83;100.00;97461.00;5029879;28;20478;-78
2021/11/30 07:30:23;;;;;;;3.90;3.70;;;;;;;-0.86;100.00;97441.22;5041603;28;20450;-78
2021/11/30 07:32:51;;;;;;;3.93;3.63;;;;;;;-0.85;100.00;97439.47;5047317;28;20214;-78
2021/11/30 07:35:23;;;;;;;3.63;3.43;;;;;;;-0.79;100.00;97439.84;5004687;28;20224;-78
2021/11/30 07:37:51;;;;;;;3.73;3.20;;;;;;;-0.85;100.00;97426.44;5048315;28;20521;-78
2021/11/30 07:40:20;;;;;;;3.70;3.50;;;;;;;-0.67;100.00;97422.56;5030310;28;20214;-78
2021/11/30 07:42:48;;;;;;;3.30;3.10;;;;;;;-0.78;100.00;97412.88;5033704;28;20215;-78
2021/11/30 07:45:17;;;;;;;3.23;3.03;;;;;;;-0.86;100.00;97401.38;5046113;28;20202;-78
2021/11/30 07:47:45;;;;;;;3.27;3.03;;;;;;;-0.86;100.00;97403.97;5030247;28;20489;-78
2021/11/30 07:50:13;;;;;;;3.50;3.30;;;;;;;-0.90;100.00;97395.53;5007013;28;20240;-75
2021/11/30 07:52:44;;;;;;;3.33;3.13;;;;;;;-0.82;100.00;97389.81;5017287;28;20744;-78
2021/11/30 07:55:14;;;;;;;3.90;3.70;;;;;;;-0.88;100.00;97385.84;5043014;28;20445;-78
2021/11/30 07:57:43;;;;;;;3.63;2.80;;;;;;;-0.88;100.00;97389.31;5034280;28;20997;-79
2021/11/30 08:00:13;;;;;;;3.63;3.43;;;;;;;-0.90;100.00;97372.13;5024468;28;20213;-78
2021/11/30 08:02:46;;;;;;;3.23;3.03;;;;;;;-0.93;100.00;97383.59;5044546;28;20449;-77
2021/11/30 08:05:15;;;;;;;3.27;3.07;;;;;;;-1.00;100.00;97366.72;5008159;28;20322;-78
2021/11/30 08:07:44;;;;;;;3.10;2.90;;;;;;;-0.95;100.00;97374.22;5038638;28;20965;-79
2021/11/30 08:10:18;;;;;;;3.50;3.30;;;;;;;-0.94;100.00;97373.28;5035495;28;20461;-78
2021/11/30 08:12:46;;;;;;;3.47;3.17;;;;;;;-1.00;100.00;97379.72;5035062;28;20450;-77
2021/11/30 08:15:16;;;;;;;4.10;3.80;;;;;;;-1.01;100.00;97370.25;5038450;28;20662;-78
2021/11/30 08:18:00;;;;;;;4.80;3.80;;;;;;;-1.04;100.00;97363.53;5034247;28;20564;-79
2021/11/30 08:20:28;;;;;;;3.73;3.43;;;;;;;-0.96;100.00;97367.34;5016221;28;20457;-78
2021/11/30 08:23:00;;;;;;;6.43;4.60;;;;;;;-1.04;100.00;97365.28;5012340;28;20456;-77
2021/11/30 08:25:28;;;;;;;3.03;2.87;;;;;;;-1.06;100.00;97354.16;5039766;28;20638;-78
2021/11/30 08:27:57;;;;;;;2.93;2.73;;;;;;;-1.07;100.00;97365.50;5038888;28;20480;-78
2021/11/30 08:30:45;;;;;;;3.10;2.90;;;;;;;-1.07;100.00;97357.69;5043481;28;20464;-78
2021/11/30 08:33:14;;;;;;;2.97;2.77;;;;;;;-1.08;100.00;97358.63;5043548;28;20466;-78
2021/11/30 08:35:42;;;;;;;3.30;3.00;;;;;;;-1.06;100.00;97356.75;5004121;28;20537;-78
2021/11/30 08:38:12;;;;;;;2.87;2.73;;;;;;;-1.08;100.00;97369.88;5032431;28;20473;-79
2021/11/30 08:40:40;;;;;;;2.87;2.60;;;;;;;-1.06;100.00;97383.59;5027808;28;21556;-78
2021/11/30 08:43:08;;;;;;;2.83;2.50;;;;;;;-1.11;100.00;97351.03;5038240;28;20446;-78
2021/11/30 08:45:36;;;;;;;2.47;2.37;;;;;;;-1.10;100.00;97358.75;5022461;28;20489;-78
2021/11/30 08:48:05;;;;;;;3.07;2.87;;;;;;;-1.11;100.00;97354.50;5029557;28;20486;-79
2021/11/30 08:50:33;;;;;;;3.97;3.63;;;;;;;-1.15;100.00;97367.78;5039180;28;20679;-79
2021/11/30 08:53:01;;;;;;;2.50;2.40;;;;;;;-1.14;100.00;97346.88;4996015;28;20464;-78
2021/11/30 08:55:35;;;;;;;3.33;2.77;;;;;;;-1.22;100.00;97355.22;5026732;28;20742;-78
2021/11/30 08:58:04;;;;;;;4.43;3.53;;;;;;;-1.18;100.00;97348.88;5043174;28;21210;-78
2021/11/30 09:00:33;;;;;;;4.50;4.10;;;;;;;-1.24;100.00;97338.91;5020159;28;20537;-78
2021/11/30 09:03:02;;;;;;;3.10;2.90;;;;;;;-1.14;100.00;97348.66;5045321;28;20438;-78
2021/11/30 09:05:30;;;;;;;3.33;3.03;;;;;;;-1.21;100.00;97341.28;5018945;28;21177;-77
2021/11/30 09:07:58;;;;;;;3.47;3.20;;;;;;;-1.17;100.00;97344.47;5018265;28;20857;-79
2021/11/30 09:10:26;;;;;;;3.57;3.37;;;;;;;-1.14;100.00;97359.06;5012024;28;21093;-79
2021/11/30 09:12:56;;;;;;;3.17;2.97;;;;;;;-1.20;100.00;97347.31;5047185;28;20453;-80
2021/11/30 09:15:24;;;;;;;4.73;4.30;;;;;;;-1.13;100.00;97350.31;5028667;28;20783;-79
2021/11/30 09:17:54;;;;;;;3.80;3.30;;;;;;;-1.18;100.00;97351.47;5027842;28;20465;-77
2021/11/30 09:20:22;;;;;;;4.17;3.00;;;;;;;-1.17;100.00;97340.13;5041446;28;20850;-75
2021/11/30 09:22:51;;;;;;;2.80;2.60;;;;;;;-1.19;100.00;97330.75;5023325;28;20466;-76
2021/11/30 09:25:21;;;;;;;2.43;2.33;;;;;;;-1.18;100.00;97332.41;4995605;28;20447;-77
2021/11/30 09:27:49;;;;;;;2.30;2.20;;;;;;;-1.19;100.00;97331.59;5043525;28;20490;-77
2021/11/30 09:30:22;;;;;;;2.53;2.43;;;;;;;-1.15;100.00;97321.81;5021131;28;20460;-76
2021/11/30 09:32:51;;;;;;;2.77;2.50;;;;;;;-1.18;100.00;97322.03;5030841;28;20867;-77
2021/11/30 09:35:21;;;;;;;2.70;2.60;;;;;;;-1.09;100.00;97325.75;5025900;28;20214;-76
2021/11/30 09:37:51;;;;;;;3.07;2.87;;;;;;;-1.11;100.00;97301.63;5046775;28;20573;-77
2021/11/30 09:40:22;;;;;;;2.70;2.60;;;;;;;-1.06;100.00;97300.38;4995838;28;20464;-76
2021/11/30 09:43:10;;;;;;;2.70;2.60;;;;;;;-1.07;100.00;97290.06;5047499;28;20576;-77
2021/11/30 09:45:41;;;;;;;2.80;2.60;;;;;;;-1.06;100.00;97295.19;5046641;28;20453;-77
2021/11/30 09:48:11;;;;;;;3.27;2.77;;;;;;;-0.96;100.00;97297.13;5025261;28;20533;-76
2021/11/30 09:50:41;;;;;;;2.80;2.53;;;;;;;-0.97;100.00;97274.66;5048728;28;20618;-76
2021/11/30 09:53:09;;;;;;;2.37;2.27;;;;;;;-0.97;100.00;97278.06;5032775;28;20448;-76
2021/11/30 09:55:39;;;;;;;2.37;2.27;;;;;;;-0.88;100.00;97282.63;5012814;28;20967;-77
2021/11/30 09:58:07;;;;;;;2.10;2.03;;;;;;;-0.84;100.00;97269.41;5019789;28;20474;-77
2021/11/30 10:00:37;;;;;;;3.40;2.33;;;;;;;-0.81;100.00;97274.38;5035182;28;20231;-77
2021/11/30 10:03:09;;;;;;;2.33;2.23;;;;;;;-0.85;100.00;97267.75;5033805;28;20216;-76
2021/11/30 10:05:38;;;;;;;2.63;2.43;;;;;;;-0.84;100.00;97252.00;5027629;28;20476;-77
2021/11/30 10:08:07;;;;;;;3.10;2.77;;;;;;;-0.85;100.00;97260.75;5050727;28;20500;-77
2021/11/30 10:10:39;;;;;;;2.40;2.30;;;;;;;-0.86;100.00;97251.28;5029146;28;20859;-77
2021/11/30 10:13:13;;;;;;;2.67;2.57;;;;;;;-0.88;100.00;97260.97;5017041;28;20461;-78
2021/11/30 10:15:57;;;;;;;1.80;1.80;;;;;;;-0.89;100.00;97236.75;5055541;28;21067;-79
2021/11/30 10:18:28;;;;;;;2.30;2.20;;;;;;;-0.88;100.00;97241.00;5027869;28;20222;-77
2021/11/30 10:20:59;;;;;;;2.47;2.37;;;;;;;-0.86;100.00;97237.47;5049221;28;20984;-76
2021/11/30 10:23:30;;;;;;;2.20;2.10;;;;;;;-0.85;100.00;97234.75;5026216;28;20449;-77
2021/11/30 10:26:04;;;;;;;2.67;2.47;;;;;;;-0.90;100.00;97226.44;5047158;28;20452;-77
2021/11/30 10:28:33;;;;;;;1.93;1.93;;;;;;;-0.86;100.00;97237.47;5005596;28;20760;-76
2021/11/30 10:31:01;;;;;;;2.20;2.10;;;;;;;-0.85;100.00;97215.72;5048280;28;21066;-78
2021/11/30 10:33:33;;;;;;;2.03;1.93;;;;;;;-0.80;100.00;97231.81;5031353;28;20738;-77
2021/11/30 10:36:02;;;;;;;1.93;1.83;;;;;;;-0.82;100.00;97215.50;5029017;28;20450;-78
2021/11/30 10:38:34;;;;;;;2.50;2.40;;;;;;;-0.82;100.00;97208.50;5044928;28;20665;-77
2021/11/30 10:41:17;;;;;;;2.30;2.20;;;;;;;-0.78;100.00;97190.91;5025188;28;20203;-76
2021/11/30 10:43:53;;;;;;;2.00;1.90;;;;;;;-0.76;100.00;97228.91;5042341;28;20488;-76
2021/11/30 10:46:23;;;;;;;2.80;2.37;;;;;;;-0.78;100.00;97206.53;5024831;28;20444;-77
2021/11/30 10:48:53;;;;;;;2.17;2.07;;;;;;;-0.75;100.00;97199.31;5033120;28;21024;-78
2021/11/30 10:51:22;;;;;;;2.20;2.10;;;;;;;-0.77;100.00;97201.19;5044444;28;20465;-77
2021/11/30 10:53:55;;;;;;;1.60;1.60;;;;;;;-0.73;100.00;97186.19;5031663;28;20449;-76
2021/11/30 10:56:23;;;;;;;1.97;1.87;;;;;;;-0.70;100.00;97200.75;5007615;28;21280;-76
2021/11/30 10:58:54;;;;;;;1.80;1.70;;;;;;;-0.79;100.00;97177.06;5029034;28;20557;-78
2021/11/30 11:01:24;;;;;;;2.20;2.10;;;;;;;-0.71;100.00;97192.13;5042027;28;20430;-77
2021/11/30 11:04:13;;;;;;;2.00;1.90;;;;;;;-0.70;100.00;97196.38;5026445;28;20946;-77
2021/11/30 11:06:41;;;;;;;1.93;1.83;;;;;;;-0.73;100.00;97197.44;5036927;28;20781;-74
2021/11/30 11:09:11;;;;;;;2.20;2.10;;;;;;;-0.76;100.00;97181.22;5031728;28;20314;-75
2021/11/30 11:11:40;;;;;;;1.80;1.77;;;;;;;-0.75;100.00;97182.88;5026118;28;20519;-76
2021/11/30 11:14:20;;;;;;;2.27;2.17;;;;;;;-0.75;100.00;97196.72;5008604;28;20465;-75
2021/11/30 11:16:50;;;;;;;2.07;1.97;;;;;;;-0.70;100.00;97172.94;5028363;28;20445;-75
2021/11/30 11:19:38;;;;;;;1.50;1.50;;;;;;;-0.76;100.00;97176.00;5028051;28;20281;-75
2021/11/30 11:22:15;;;;;;;2.20;2.10;;;;;;;-0.82;100.00;97174.69;5040823;28;20195;-75
2021/11/30 11:24:43;;;;;;;3.17;2.93;;;;;;;-0.81;100.00;97163.34;5039835;28;20213;-77
2021/11/30 11:27:12;;;;;;;2.07;1.97;;;;;;;-0.77;100.00;97169.97;5027883;28;20480;-74
2021/11/30 11:29:43;;;;;;;3.40;3.20;;;;;;;-0.77;100.00;97182.16;5032063;28;20662;-76
2021/11/30 11:32:12;;;;;;;1.43;1.33;;;;;;;-0.79;100.00;97168.44;5043350;28;20778;-74
2021/11/30 11:34:41;;;;;;;1.77;1.70;;;;;;;-0.76;100.00;97150.84;5025455;28;20563;-75
2021/11/30 11:37:10;;;;;;;2.27;2.17;;;;;;;-0.79;100.00;97155.44;5045249;28;20471;-74
2021/11/30 11:39:39;;;;;;;2.53;2.33;;;;;;;-0.80;100.00;97151.97;5025646;28;20678;-77
2021/11/30 11:42:10;;;;;;;1.50;1.40;;;;;;;-0.76;100.00;97139.59;5032445;28;20446;-75